sensor_id;sensor_type;location;lat;lon;timestamp;P1;durP1;ratioP1;P2;durP2;ratioP2
17310;SDS011;8773;43.300;0.394;2024-01-11T00:02:05;17.27;;;14.33;;
17310;SDS011;8773;43.300;0.394;2024-01-11T00:04:32;13.53;;;12.13;;
17310;SDS011;8773;43.300;0.394;2024-01-11T00:07:00;17.00;;;13.47;;
17310;SDS011;8773;43.300;0.394;2024-01-11T00:09:27;13.43;;;12.03;;
17310;SDS011;8773;43.300;0.394;2024-01-11T00:11:56;15.33;;;13.50;;
17310;SDS011;8773;43.300;0.394;2024-01-11T00:14:23;13.83;;;12.33;;
17310;SDS011;8773;43.300;0.394;2024-01-11T00:16:50;13.13;;;11.80;;
17310;SDS011;8773;43.300;0.394;2024-01-11T00:19:18;13.73;;;12.33;;
17310;SDS011;8773;43.300;0.394;2024-01-11T00:21:45;14.03;;;12.13;;
17310;SDS011;8773;43.300;0.394;2024-01-11T00:24:12;13.97;;;12.57;;
17310;SDS011;8773;43.300;0.394;2024-01-11T00:26:40;13.80;;;12.27;;
17310;SDS011;8773;43.300;0.394;2024-01-11T00:29:08;14.00;;;12.60;;
17310;SDS011;8773;43.300;0.394;2024-01-11T00:31:36;12.27;;;11.00;;
17310;SDS011;8773;43.300;0.394;2024-01-11T00:34:03;11.63;;;10.43;;
17310;SDS011;8773;43.300;0.394;2024-01-11T00:36:31;11.53;;;10.43;;
17310;SDS011;8773;43.300;0.394;2024-01-11T00:38:58;11.33;;;10.23;;
17310;SDS011;8773;43.300;0.394;2024-01-11T00:41:25;10.10;;;9.27;;
17310;SDS011;8773;43.300;0.394;2024-01-11T00:43:53;12.47;;;11.20;;
17310;SDS011;8773;43.300;0.394;2024-01-11T00:46:22;9.93;;;9.03;;
17310;SDS011;8773;43.300;0.394;2024-01-11T00:48:49;9.40;;;8.60;;
17310;SDS011;8773;43.300;0.394;2024-01-11T00:51:22;8.77;;;7.97;;
17310;SDS011;8773;43.300;0.394;2024-01-11T00:53:49;9.30;;;8.50;;
17310;SDS011;8773;43.300;0.394;2024-01-11T00:56:16;7.63;;;7.07;;
17310;SDS011;8773;43.300;0.394;2024-01-11T00:58:44;6.93;;;6.40;;
17310;SDS011;8773;43.300;0.394;2024-01-11T01:01:11;7.33;;;6.63;;
17310;SDS011;8773;43.300;0.394;2024-01-11T01:03:40;6.97;;;6.40;;
17310;SDS011;8773;43.300;0.394;2024-01-11T01:06:08;7.07;;;6.57;;
17310;SDS011;8773;43.300;0.394;2024-01-11T01:08:35;8.60;;;8.00;;
17310;SDS011;8773;43.300;0.394;2024-01-11T01:11:03;7.33;;;6.83;;
17310;SDS011;8773;43.300;0.394;2024-01-11T01:13:30;8.50;;;7.83;;
17310;SDS011;8773;43.300;0.394;2024-01-11T01:15:57;10.10;;;9.20;;
17310;SDS011;8773;43.300;0.394;2024-01-11T01:18:25;8.80;;;8.10;;
17310;SDS011;8773;43.300;0.394;2024-01-11T01:20:54;6.63;;;6.23;;
17310;SDS011;8773;43.300;0.394;2024-01-11T01:23:21;7.60;;;7.07;;
17310;SDS011;8773;43.300;0.394;2024-01-11T01:25:49;6.37;;;5.97;;
17310;SDS011;8773;43.300;0.394;2024-01-11T01:28:16;6.50;;;6.10;;
17310;SDS011;8773;43.300;0.394;2024-01-11T01:30:43;6.13;;;5.73;;
17310;SDS011;8773;43.300;0.394;2024-01-11T01:33:11;6.80;;;6.40;;
17310;SDS011;8773;43.300;0.394;2024-01-11T01:35:38;6.80;;;6.30;;
17310;SDS011;8773;43.300;0.394;2024-01-11T01:38:07;11.17;;;10.17;;
17310;SDS011;8773;43.300;0.394;2024-01-11T01:40:34;10.03;;;9.30;;
17310;SDS011;8773;43.300;0.394;2024-01-11T01:43:06;10.10;;;9.30;;
17310;SDS011;8773;43.300;0.394;2024-01-11T01:45:33;8.90;;;8.20;;
17310;SDS011;8773;43.300;0.394;2024-01-11T01:48:01;8.13;;;7.53;;
17310;SDS011;8773;43.300;0.394;2024-01-11T01:50:29;8.13;;;7.53;;
17310;SDS011;8773;43.300;0.394;2024-01-11T01:52:58;7.67;;;7.17;;
17310;SDS011;8773;43.300;0.394;2024-01-11T01:55:28;7.33;;;6.83;;
17310;SDS011;8773;43.300;0.394;2024-01-11T01:57:56;7.80;;;7.20;;
17310;SDS011;8773;43.300;0.394;2024-01-11T02:00:24;7.17;;;6.67;;
17310;SDS011;8773;43.300;0.394;2024-01-11T02:02:52;7.00;;;6.50;;
17310;SDS011;8773;43.300;0.394;2024-01-11T02:05:22;7.53;;;7.03;;
17310;SDS011;8773;43.300;0.394;2024-01-11T02:07:50;8.03;;;7.43;;
17310;SDS011;8773;43.300;0.394;2024-01-11T02:10:18;8.00;;;7.40;;
17310;SDS011;8773;43.300;0.394;2024-01-11T02:12:47;8.27;;;7.67;;
17310;SDS011;8773;43.300;0.394;2024-01-11T02:15:15;9.20;;;8.50;;
17310;SDS011;8773;43.300;0.394;2024-01-11T02:17:42;8.77;;;8.07;;
17310;SDS011;8773;43.300;0.394;2024-01-11T02:20:10;9.33;;;8.53;;
17310;SDS011;8773;43.300;0.394;2024-01-11T02:22:39;9.27;;;8.50;;
17310;SDS011;8773;43.300;0.394;2024-01-11T02:25:11;9.20;;;8.43;;
17310;SDS011;8773;43.300;0.394;2024-01-11T02:27:44;9.13;;;8.23;;
17310;SDS011;8773;43.300;0.394;2024-01-11T02:30:12;9.53;;;8.70;;
17310;SDS011;8773;43.300;0.394;2024-01-11T02:32:40;10.73;;;9.83;;
17310;SDS011;8773;43.300;0.394;2024-01-11T02:35:10;9.07;;;8.33;;
17310;SDS011;8773;43.300;0.394;2024-01-11T02:37:38;8.70;;;7.93;;
17310;SDS011;8773;43.300;0.394;2024-01-11T02:40:06;9.43;;;8.63;;
17310;SDS011;8773;43.300;0.394;2024-01-11T02:42:36;10.27;;;9.33;;
17310;SDS011;8773;43.300;0.394;2024-01-11T02:45:04;9.63;;;8.73;;
17310;SDS011;8773;43.300;0.394;2024-01-11T02:47:32;9.13;;;8.40;;
17310;SDS011;8773;43.300;0.394;2024-01-11T02:49:59;9.57;;;8.77;;
17310;SDS011;8773;43.300;0.394;2024-01-11T02:52:27;10.20;;;9.30;;
17310;SDS011;8773;43.300;0.394;2024-01-11T02:54:54;10.27;;;9.37;;
17310;SDS011;8773;43.300;0.394;2024-01-11T02:57:21;10.10;;;9.27;;
17310;SDS011;8773;43.300;0.394;2024-01-11T02:59:51;9.93;;;9.13;;
17310;SDS011;8773;43.300;0.394;2024-01-11T03:02:18;9.67;;;8.87;;
17310;SDS011;8773;43.300;0.394;2024-01-11T03:04:45;9.73;;;8.93;;
17310;SDS011;8773;43.300;0.394;2024-01-11T03:07:13;10.33;;;9.43;;
17310;SDS011;8773;43.300;0.394;2024-01-11T03:09:40;10.00;;;9.10;;
17310;SDS011;8773;43.300;0.394;2024-01-11T03:12:08;10.27;;;9.37;;
17310;SDS011;8773;43.300;0.394;2024-01-11T03:14:35;10.13;;;9.30;;
17310;SDS011;8773;43.300;0.394;2024-01-11T03:17:04;9.67;;;8.83;;
17310;SDS011;8773;43.300;0.394;2024-01-11T03:19:32;10.27;;;9.33;;
17310;SDS011;8773;43.300;0.394;2024-01-11T03:21:59;9.93;;;9.10;;
17310;SDS011;8773;43.300;0.394;2024-01-11T03:24:27;10.77;;;9.87;;
17310;SDS011;8773;43.300;0.394;2024-01-11T03:26:54;10.47;;;9.47;;
17310;SDS011;8773;43.300;0.394;2024-01-11T03:29:21;10.60;;;9.70;;
17310;SDS011;8773;43.300;0.394;2024-01-11T03:31:48;10.90;;;9.90;;
17310;SDS011;8773;43.300;0.394;2024-01-11T03:34:17;10.93;;;9.93;;
17310;SDS011;8773;43.300;0.394;2024-01-11T03:36:45;10.17;;;9.27;;
17310;SDS011;8773;43.300;0.394;2024-01-11T03:39:12;10.60;;;9.70;;
17310;SDS011;8773;43.300;0.394;2024-01-11T03:41:42;10.37;;;9.37;;
17310;SDS011;8773;43.300;0.394;2024-01-11T03:44:10;11.07;;;10.07;;
17310;SDS011;8773;43.300;0.394;2024-01-11T03:46:38;10.53;;;9.53;;
17310;SDS011;8773;43.300;0.394;2024-01-11T03:49:05;12.40;;;11.10;;
17310;SDS011;8773;43.300;0.394;2024-01-11T03:51:34;12.60;;;11.40;;
17310;SDS011;8773;43.300;0.394;2024-01-11T03:54:02;13.40;;;12.07;;
17310;SDS011;8773;43.300;0.394;2024-01-11T03:56:30;13.93;;;12.00;;
17310;SDS011;8773;43.300;0.394;2024-01-11T03:58:57;13.00;;;11.67;;
17310;SDS011;8773;43.300;0.394;2024-01-11T04:01:25;12.73;;;11.50;;
17310;SDS011;8773;43.300;0.394;2024-01-11T04:03:52;13.37;;;12.07;;
17310;SDS011;8773;43.300;0.394;2024-01-11T04:06:20;12.57;;;11.27;;
17310;SDS011;8773;43.300;0.394;2024-01-11T04:08:49;11.77;;;10.67;;
17310;SDS011;8773;43.300;0.394;2024-01-11T04:11:16;13.33;;;12.03;;
17310;SDS011;8773;43.300;0.394;2024-01-11T04:13:44;12.43;;;11.17;;
17310;SDS011;8773;43.300;0.394;2024-01-11T04:16:11;11.57;;;10.47;;
17310;SDS011;8773;43.300;0.394;2024-01-11T04:18:38;11.53;;;10.53;;
17310;SDS011;8773;43.300;0.394;2024-01-11T04:21:06;10.67;;;9.67;;
17310;SDS011;8773;43.300;0.394;2024-01-11T04:23:33;10.60;;;9.60;;
17310;SDS011;8773;43.300;0.394;2024-01-11T04:26:02;10.30;;;9.37;;
17310;SDS011;8773;43.300;0.394;2024-01-11T04:28:30;11.10;;;10.10;;
17310;SDS011;8773;43.300;0.394;2024-01-11T04:30:57;11.03;;;10.03;;
17310;SDS011;8773;43.300;0.394;2024-01-11T04:33:24;10.67;;;9.77;;
17310;SDS011;8773;43.300;0.394;2024-01-11T04:35:52;10.93;;;9.97;;
17310;SDS011;8773;43.300;0.394;2024-01-11T04:38:19;12.00;;;10.53;;
17310;SDS011;8773;43.300;0.394;2024-01-11T04:40:47;11.50;;;10.50;;
17310;SDS011;8773;43.300;0.394;2024-01-11T04:43:15;11.70;;;10.57;;
17310;SDS011;8773;43.300;0.394;2024-01-11T04:45:43;11.37;;;10.37;;
17310;SDS011;8773;43.300;0.394;2024-01-11T04:48:10;11.33;;;10.27;;
17310;SDS011;8773;43.300;0.394;2024-01-11T04:50:38;11.67;;;10.57;;
17310;SDS011;8773;43.300;0.394;2024-01-11T04:53:05;11.90;;;10.70;;
17310;SDS011;8773;43.300;0.394;2024-01-11T04:55:32;12.50;;;11.30;;
17310;SDS011;8773;43.300;0.394;2024-01-11T04:58:00;12.60;;;11.30;;
17310;SDS011;8773;43.300;0.394;2024-01-11T05:00:28;11.07;;;10.07;;
17310;SDS011;8773;43.300;0.394;2024-01-11T05:02:56;11.07;;;10.00;;
17310;SDS011;8773;43.300;0.394;2024-01-11T05:05:23;13.50;;;12.10;;
17310;SDS011;8773;43.300;0.394;2024-01-11T05:07:50;15.90;;;13.20;;
17310;SDS011;8773;43.300;0.394;2024-01-11T05:10:18;13.83;;;12.33;;
17310;SDS011;8773;43.300;0.394;2024-01-11T05:12:45;12.70;;;11.43;;
17310;SDS011;8773;43.300;0.394;2024-01-11T05:15:12;12.23;;;11.13;;
17310;SDS011;8773;43.300;0.394;2024-01-11T05:17:41;12.27;;;11.10;;
17310;SDS011;8773;43.300;0.394;2024-01-11T05:20:09;12.30;;;11.00;;
17310;SDS011;8773;43.300;0.394;2024-01-11T05:22:36;12.70;;;11.50;;
17310;SDS011;8773;43.300;0.394;2024-01-11T05:25:04;15.40;;;13.90;;
17310;SDS011;8773;43.300;0.394;2024-01-11T05:27:32;13.83;;;12.53;;
17310;SDS011;8773;43.300;0.394;2024-01-11T05:29:59;12.93;;;11.73;;
17310;SDS011;8773;43.300;0.394;2024-01-11T05:32:26;12.07;;;10.97;;
17310;SDS011;8773;43.300;0.394;2024-01-11T05:34:55;12.87;;;11.67;;
17310;SDS011;8773;43.300;0.394;2024-01-11T05:37:23;11.60;;;10.60;;
17310;SDS011;8773;43.300;0.394;2024-01-11T05:39:50;12.30;;;11.13;;
17310;SDS011;8773;43.300;0.394;2024-01-11T05:42:17;13.00;;;11.83;;
17310;SDS011;8773;43.300;0.394;2024-01-11T05:44:45;11.63;;;10.53;;
17310;SDS011;8773;43.300;0.394;2024-01-11T05:47:12;11.43;;;10.33;;
17310;SDS011;8773;43.300;0.394;2024-01-11T05:49:40;12.00;;;10.90;;
17310;SDS011;8773;43.300;0.394;2024-01-11T05:52:08;12.23;;;11.03;;
17310;SDS011;8773;43.300;0.394;2024-01-11T05:54:36;12.93;;;11.63;;
17310;SDS011;8773;43.300;0.394;2024-01-11T05:57:03;13.93;;;12.63;;
17310;SDS011;8773;43.300;0.394;2024-01-11T05:59:31;13.53;;;12.23;;
17310;SDS011;8773;43.300;0.394;2024-01-11T06:01:58;15.67;;;13.37;;
17310;SDS011;8773;43.300;0.394;2024-01-11T06:04:26;14.60;;;13.07;;
17310;SDS011;8773;43.300;0.394;2024-01-11T06:06:53;14.83;;;13.37;;
17310;SDS011;8773;43.300;0.394;2024-01-11T06:09:22;13.97;;;12.63;;
17310;SDS011;8773;43.300;0.394;2024-01-11T06:11:49;14.73;;;13.30;;
17310;SDS011;8773;43.300;0.394;2024-01-11T06:14:16;14.80;;;12.83;;
17310;SDS011;8773;43.300;0.394;2024-01-11T06:16:44;14.47;;;12.97;;
17310;SDS011;8773;43.300;0.394;2024-01-11T06:19:11;14.77;;;13.27;;
17310;SDS011;8773;43.300;0.394;2024-01-11T06:21:39;13.50;;;12.27;;
17310;SDS011;8773;43.300;0.394;2024-01-11T06:24:06;15.47;;;13.87;;
17310;SDS011;8773;43.300;0.394;2024-01-11T06:26:35;16.40;;;14.70;;
17310;SDS011;8773;43.300;0.394;2024-01-11T06:29:02;18.17;;;16.33;;
17310;SDS011;8773;43.300;0.394;2024-01-11T06:31:30;17.47;;;15.57;;
17310;SDS011;8773;43.300;0.394;2024-01-11T06:33:57;15.00;;;13.57;;
17310;SDS011;8773;43.300;0.394;2024-01-11T06:36:25;16.67;;;15.07;;
17310;SDS011;8773;43.300;0.394;2024-01-11T06:38:52;17.00;;;15.20;;
17310;SDS011;8773;43.300;0.394;2024-01-11T06:41:19;16.07;;;14.57;;
17310;SDS011;8773;43.300;0.394;2024-01-11T06:43:48;17.57;;;15.77;;
17310;SDS011;8773;43.300;0.394;2024-01-11T06:46:19;16.93;;;15.27;;
17310;SDS011;8773;43.300;0.394;2024-01-11T06:48:47;15.70;;;14.17;;
17310;SDS011;8773;43.300;0.394;2024-01-11T06:51:14;17.67;;;15.93;;
17310;SDS011;8773;43.300;0.394;2024-01-11T06:53:42;16.13;;;14.47;;
17310;SDS011;8773;43.300;0.394;2024-01-11T06:56:15;16.37;;;14.77;;
17310;SDS011;8773;43.300;0.394;2024-01-11T06:58:43;15.80;;;14.30;;
17310;SDS011;8773;43.300;0.394;2024-01-11T07:01:13;15.47;;;13.97;;
17310;SDS011;8773;43.300;0.394;2024-01-11T07:03:40;16.50;;;14.77;;
17310;SDS011;8773;43.300;0.394;2024-01-11T07:06:08;17.13;;;15.33;;
17310;SDS011;8773;43.300;0.394;2024-01-11T07:08:35;22.43;;;18.43;;
17310;SDS011;8773;43.300;0.394;2024-01-11T07:11:03;28.77;;;25.20;;
17310;SDS011;8773;43.300;0.394;2024-01-11T07:13:31;30.47;;;26.37;;
17310;SDS011;8773;43.300;0.394;2024-01-11T07:15:58;21.90;;;19.50;;
17310;SDS011;8773;43.300;0.394;2024-01-11T07:18:27;19.10;;;16.47;;
17310;SDS011;8773;43.300;0.394;2024-01-11T07:20:55;17.13;;;15.40;;
17310;SDS011;8773;43.300;0.394;2024-01-11T07:23:23;16.80;;;15.10;;
17310;SDS011;8773;43.300;0.394;2024-01-11T07:25:51;17.67;;;15.87;;
17310;SDS011;8773;43.300;0.394;2024-01-11T07:28:18;18.37;;;16.53;;
17310;SDS011;8773;43.300;0.394;2024-01-11T07:30:45;18.50;;;16.57;;
17310;SDS011;8773;43.300;0.394;2024-01-11T07:33:13;19.10;;;17.10;;
17310;SDS011;8773;43.300;0.394;2024-01-11T07:35:42;20.03;;;18.00;;
17310;SDS011;8773;43.300;0.394;2024-01-11T07:38:09;21.30;;;18.80;;
17310;SDS011;8773;43.300;0.394;2024-01-11T07:40:36;18.87;;;16.83;;
17310;SDS011;8773;43.300;0.394;2024-01-11T07:43:08;18.73;;;16.60;;
17310;SDS011;8773;43.300;0.394;2024-01-11T07:45:35;20.87;;;18.67;;
17310;SDS011;8773;43.300;0.394;2024-01-11T07:48:03;19.63;;;17.53;;
17310;SDS011;8773;43.300;0.394;2024-01-11T07:50:31;18.27;;;16.47;;
17310;SDS011;8773;43.300;0.394;2024-01-11T07:53:00;17.40;;;15.47;;
17310;SDS011;8773;43.300;0.394;2024-01-11T07:55:27;20.17;;;17.10;;
17310;SDS011;8773;43.300;0.394;2024-01-11T07:57:55;19.47;;;17.47;;
17310;SDS011;8773;43.300;0.394;2024-01-11T08:00:22;19.37;;;16.83;;
17310;SDS011;8773;43.300;0.394;2024-01-11T08:02:49;19.37;;;17.27;;
17310;SDS011;8773;43.300;0.394;2024-01-11T08:05:17;17.93;;;16.03;;
17310;SDS011;8773;43.300;0.394;2024-01-11T08:07:44;18.90;;;16.77;;
17310;SDS011;8773;43.300;0.394;2024-01-11T08:10:13;18.50;;;15.97;;
17310;SDS011;8773;43.300;0.394;2024-01-11T08:12:40;18.90;;;16.40;;
17310;SDS011;8773;43.300;0.394;2024-01-11T08:15:08;21.63;;;16.73;;
17310;SDS011;8773;43.300;0.394;2024-01-11T08:17:36;18.13;;;16.23;;
17310;SDS011;8773;43.300;0.394;2024-01-11T08:20:05;18.93;;;16.67;;
17310;SDS011;8773;43.300;0.394;2024-01-11T08:22:33;19.97;;;16.57;;
17310;SDS011;8773;43.300;0.394;2024-01-11T08:25:00;19.93;;;17.83;;
17310;SDS011;8773;43.300;0.394;2024-01-11T08:27:29;19.63;;;17.60;;
17310;SDS011;8773;43.300;0.394;2024-01-11T08:29:56;20.53;;;17.53;;
17310;SDS011;8773;43.300;0.394;2024-01-11T08:32:24;19.50;;;16.80;;
17310;SDS011;8773;43.300;0.394;2024-01-11T08:34:58;18.33;;;16.17;;
17310;SDS011;8773;43.300;0.394;2024-01-11T08:37:26;17.27;;;15.37;;
17310;SDS011;8773;43.300;0.394;2024-01-11T08:39:53;17.97;;;16.07;;
17310;SDS011;8773;43.300;0.394;2024-01-11T08:42:20;18.53;;;16.63;;
17310;SDS011;8773;43.300;0.394;2024-01-11T08:44:49;17.67;;;15.70;;
17310;SDS011;8773;43.300;0.394;2024-01-11T08:47:16;17.73;;;15.83;;
17310;SDS011;8773;43.300;0.394;2024-01-11T08:49:44;18.27;;;16.40;;
17310;SDS011;8773;43.300;0.394;2024-01-11T08:52:11;18.33;;;16.37;;
17310;SDS011;8773;43.300;0.394;2024-01-11T08:54:38;18.07;;;16.17;;
17310;SDS011;8773;43.300;0.394;2024-01-11T08:57:06;17.80;;;15.70;;
17310;SDS011;8773;43.300;0.394;2024-01-11T08:59:33;18.27;;;15.37;;
17310;SDS011;8773;43.300;0.394;2024-01-11T09:02:02;17.47;;;15.07;;
17310;SDS011;8773;43.300;0.394;2024-01-11T09:04:41;17.47;;;15.67;;
17310;SDS011;8773;43.300;0.394;2024-01-11T09:07:09;19.13;;;16.63;;
17310;SDS011;8773;43.300;0.394;2024-01-11T09:09:37;18.60;;;15.73;;
17310;SDS011;8773;43.300;0.394;2024-01-11T09:12:16;17.80;;;15.07;;
17310;SDS011;8773;43.300;0.394;2024-01-11T09:14:44;17.70;;;15.90;;
17310;SDS011;8773;43.300;0.394;2024-01-11T09:17:12;18.07;;;16.13;;
17310;SDS011;8773;43.300;0.394;2024-01-11T09:19:40;16.50;;;14.77;;
17310;SDS011;8773;43.300;0.394;2024-01-11T09:22:07;18.23;;;16.23;;
17310;SDS011;8773;43.300;0.394;2024-01-11T09:24:35;20.93;;;16.87;;
17310;SDS011;8773;43.300;0.394;2024-01-11T09:27:05;47.60;;;31.87;;
17310;SDS011;8773;43.300;0.394;2024-01-11T09:29:33;23.90;;;18.83;;
17310;SDS011;8773;43.300;0.394;2024-01-11T09:32:01;20.57;;;18.27;;
17310;SDS011;8773;43.300;0.394;2024-01-11T09:34:30;20.67;;;18.30;;
17310;SDS011;8773;43.300;0.394;2024-01-11T09:36:58;17.67;;;15.97;;
17310;SDS011;8773;43.300;0.394;2024-01-11T09:39:25;17.87;;;16.07;;
17310;SDS011;8773;43.300;0.394;2024-01-11T09:41:56;18.83;;;16.83;;
17310;SDS011;8773;43.300;0.394;2024-01-11T09:44:25;19.17;;;17.17;;
17310;SDS011;8773;43.300;0.394;2024-01-11T09:46:53;18.90;;;16.90;;
17310;SDS011;8773;43.300;0.394;2024-01-11T09:49:21;18.80;;;16.80;;
17310;SDS011;8773;43.300;0.394;2024-01-11T09:51:51;19.10;;;16.80;;
17310;SDS011;8773;43.300;0.394;2024-01-11T09:54:18;17.90;;;16.13;;
17310;SDS011;8773;43.300;0.394;2024-01-11T09:56:46;18.13;;;16.23;;
17310;SDS011;8773;43.300;0.394;2024-01-11T09:59:14;18.60;;;16.37;;
17310;SDS011;8773;43.300;0.394;2024-01-11T10:01:45;20.90;;;17.80;;
17310;SDS011;8773;43.300;0.394;2024-01-11T10:04:13;17.47;;;15.20;;
17310;SDS011;8773;43.300;0.394;2024-01-11T10:06:41;16.97;;;15.17;;
17310;SDS011;8773;43.300;0.394;2024-01-11T10:09:11;16.90;;;15.27;;
17310;SDS011;8773;43.300;0.394;2024-01-11T10:11:38;17.80;;;15.67;;
17310;SDS011;8773;43.300;0.394;2024-01-11T10:14:05;17.87;;;15.83;;
17310;SDS011;8773;43.300;0.394;2024-01-11T10:16:33;18.10;;;16.30;;
17310;SDS011;8773;43.300;0.394;2024-01-11T10:19:00;18.60;;;16.63;;
17310;SDS011;8773;43.300;0.394;2024-01-11T10:21:28;18.20;;;16.23;;
17310;SDS011;8773;43.300;0.394;2024-01-11T10:23:55;18.07;;;15.60;;
17310;SDS011;8773;43.300;0.394;2024-01-11T10:26:26;22.93;;;20.53;;
17310;SDS011;8773;43.300;0.394;2024-01-11T10:28:55;20.23;;;17.90;;
17310;SDS011;8773;43.300;0.394;2024-01-11T10:31:28;17.13;;;14.93;;
17310;SDS011;8773;43.300;0.394;2024-01-11T10:33:55;17.60;;;15.67;;
17310;SDS011;8773;43.300;0.394;2024-01-11T10:36:24;16.83;;;14.43;;
17310;SDS011;8773;43.300;0.394;2024-01-11T10:38:51;16.67;;;14.97;;
17310;SDS011;8773;43.300;0.394;2024-01-11T10:41:20;15.20;;;13.70;;
17310;SDS011;8773;43.300;0.394;2024-01-11T10:43:49;15.77;;;14.17;;
17310;SDS011;8773;43.300;0.394;2024-01-11T10:46:18;20.50;;;15.00;;
17310;SDS011;8773;43.300;0.394;2024-01-11T10:48:51;16.63;;;14.87;;
17310;SDS011;8773;43.300;0.394;2024-01-11T10:51:22;16.40;;;14.80;;
17310;SDS011;8773;43.300;0.394;2024-01-11T10:53:52;14.77;;;13.27;;
17310;SDS011;8773;43.300;0.394;2024-01-11T10:56:20;16.03;;;14.37;;
17310;SDS011;8773;43.300;0.394;2024-01-11T10:58:50;16.93;;;14.93;;
17310;SDS011;8773;43.300;0.394;2024-01-11T11:01:20;14.93;;;13.33;;
17310;SDS011;8773;43.300;0.394;2024-01-11T11:03:49;14.63;;;13.27;;
17310;SDS011;8773;43.300;0.394;2024-01-11T11:06:21;15.20;;;13.27;;
17310;SDS011;8773;43.300;0.394;2024-01-11T11:08:50;15.73;;;14.23;;
17310;SDS011;8773;43.300;0.394;2024-01-11T11:11:18;16.00;;;14.33;;
17310;SDS011;8773;43.300;0.394;2024-01-11T11:13:47;16.70;;;14.77;;
17310;SDS011;8773;43.300;0.394;2024-01-11T11:16:16;17.63;;;15.83;;
17310;SDS011;8773;43.300;0.394;2024-01-11T11:18:43;15.40;;;13.77;;
17310;SDS011;8773;43.300;0.394;2024-01-11T11:21:11;14.80;;;13.23;;
17310;SDS011;8773;43.300;0.394;2024-01-11T11:23:38;14.47;;;12.97;;
17310;SDS011;8773;43.300;0.394;2024-01-11T11:26:06;14.47;;;12.97;;
17310;SDS011;8773;43.300;0.394;2024-01-11T11:28:34;15.97;;;14.37;;
17310;SDS011;8773;43.300;0.394;2024-01-11T11:31:01;15.60;;;13.80;;
17310;SDS011;8773;43.300;0.394;2024-01-11T11:33:30;14.27;;;12.83;;
17310;SDS011;8773;43.300;0.394;2024-01-11T11:35:58;14.07;;;12.67;;
17310;SDS011;8773;43.300;0.394;2024-01-11T11:38:26;15.27;;;13.57;;
17310;SDS011;8773;43.300;0.394;2024-01-11T11:40:55;15.33;;;13.57;;
17310;SDS011;8773;43.300;0.394;2024-01-11T11:43:23;14.47;;;13.00;;
17310;SDS011;8773;43.300;0.394;2024-01-11T11:45:52;14.60;;;13.07;;
17310;SDS011;8773;43.300;0.394;2024-01-11T11:51:18;14.87;;;13.33;;
17310;SDS011;8773;43.300;0.394;2024-01-11T11:53:47;16.50;;;13.73;;
17310;SDS011;8773;43.300;0.394;2024-01-11T11:56:16;15.50;;;13.90;;
17310;SDS011;8773;43.300;0.394;2024-01-11T11:58:44;16.90;;;13.63;;
17310;SDS011;8773;43.300;0.394;2024-01-11T12:01:13;15.23;;;13.20;;
17310;SDS011;8773;43.300;0.394;2024-01-11T12:03:42;15.47;;;13.87;;
17310;SDS011;8773;43.300;0.394;2024-01-11T12:06:11;19.87;;;15.83;;
17310;SDS011;8773;43.300;0.394;2024-01-11T12:08:40;17.83;;;15.27;;
17310;SDS011;8773;43.300;0.394;2024-01-11T12:11:09;15.87;;;14.27;;
17310;SDS011;8773;43.300;0.394;2024-01-11T12:13:40;17.07;;;15.27;;
17310;SDS011;8773;43.300;0.394;2024-01-11T12:16:08;15.93;;;14.17;;
17310;SDS011;8773;43.300;0.394;2024-01-11T12:18:35;16.43;;;14.57;;
17310;SDS011;8773;43.300;0.394;2024-01-11T12:21:03;16.27;;;14.57;;
17310;SDS011;8773;43.300;0.394;2024-01-11T12:23:32;16.13;;;14.47;;
17310;SDS011;8773;43.300;0.394;2024-01-11T12:26:00;16.33;;;14.63;;
17310;SDS011;8773;43.300;0.394;2024-01-11T12:28:28;15.67;;;14.07;;
17310;SDS011;8773;43.300;0.394;2024-01-11T12:30:56;15.40;;;13.77;;
17310;SDS011;8773;43.300;0.394;2024-01-11T12:33:23;15.60;;;13.97;;
17310;SDS011;8773;43.300;0.394;2024-01-11T12:35:53;18.33;;;15.57;;
17310;SDS011;8773;43.300;0.394;2024-01-11T12:38:20;16.93;;;15.13;;
17310;SDS011;8773;43.300;0.394;2024-01-11T12:40:49;15.87;;;14.17;;
17310;SDS011;8773;43.300;0.394;2024-01-11T12:43:17;16.87;;;14.97;;
17310;SDS011;8773;43.300;0.394;2024-01-11T12:45:44;16.90;;;14.97;;
17310;SDS011;8773;43.300;0.394;2024-01-11T12:48:12;19.77;;;16.10;;
17310;SDS011;8773;43.300;0.394;2024-01-11T12:50:40;16.77;;;14.97;;
17310;SDS011;8773;43.300;0.394;2024-01-11T12:53:07;18.03;;;16.13;;
17310;SDS011;8773;43.300;0.394;2024-01-11T12:55:35;20.23;;;16.13;;
17310;SDS011;8773;43.300;0.394;2024-01-11T12:58:21;19.37;;;15.03;;
17310;SDS011;8773;43.300;0.394;2024-01-11T13:00:49;18.43;;;15.53;;
17310;SDS011;8773;43.300;0.394;2024-01-11T13:03:16;18.07;;;15.23;;
17310;SDS011;8773;43.300;0.394;2024-01-11T13:05:44;18.80;;;15.23;;
17310;SDS011;8773;43.300;0.394;2024-01-11T13:08:11;18.30;;;14.83;;
17310;SDS011;8773;43.300;0.394;2024-01-11T13:10:39;17.40;;;15.53;;
17310;SDS011;8773;43.300;0.394;2024-01-11T13:13:06;16.07;;;14.37;;
17310;SDS011;8773;43.300;0.394;2024-01-11T13:15:37;17.50;;;15.67;;
17310;SDS011;8773;43.300;0.394;2024-01-11T13:18:04;17.00;;;15.20;;
17310;SDS011;8773;43.300;0.394;2024-01-11T13:20:32;17.27;;;15.27;;
17310;SDS011;8773;43.300;0.394;2024-01-11T13:23:12;17.07;;;15.27;;
17310;SDS011;8773;43.300;0.394;2024-01-11T13:25:40;17.03;;;15.20;;
17310;SDS011;8773;43.300;0.394;2024-01-11T13:28:08;17.83;;;15.63;;
17310;SDS011;8773;43.300;0.394;2024-01-11T13:30:37;18.10;;;16.20;;
17310;SDS011;8773;43.300;0.394;2024-01-11T13:33:04;17.90;;;15.10;;
17310;SDS011;8773;43.300;0.394;2024-01-11T13:35:32;19.40;;;16.27;;
17310;SDS011;8773;43.300;0.394;2024-01-11T13:37:59;17.47;;;14.83;;
17310;SDS011;8773;43.300;0.394;2024-01-11T13:40:26;17.23;;;15.43;;
17310;SDS011;8773;43.300;0.394;2024-01-11T13:42:54;17.00;;;15.13;;
17310;SDS011;8773;43.300;0.394;2024-01-11T13:45:21;17.17;;;15.17;;
17310;SDS011;8773;43.300;0.394;2024-01-11T13:47:50;15.43;;;13.87;;
17310;SDS011;8773;43.300;0.394;2024-01-11T13:50:18;16.03;;;14.33;;
17310;SDS011;8773;43.300;0.394;2024-01-11T13:52:47;16.43;;;14.47;;
17310;SDS011;8773;43.300;0.394;2024-01-11T13:55:14;15.87;;;14.17;;
17310;SDS011;8773;43.300;0.394;2024-01-11T13:57:42;15.60;;;13.97;;
17310;SDS011;8773;43.300;0.394;2024-01-11T14:00:10;16.23;;;14.53;;
17310;SDS011;8773;43.300;0.394;2024-01-11T14:02:37;16.50;;;14.70;;
17310;SDS011;8773;43.300;0.394;2024-01-11T14:05:06;17.97;;;15.07;;
17310;SDS011;8773;43.300;0.394;2024-01-11T14:07:34;16.93;;;15.13;;
17310;SDS011;8773;43.300;0.394;2024-01-11T14:10:01;17.37;;;14.73;;
17310;SDS011;8773;43.300;0.394;2024-01-11T14:12:29;17.43;;;15.30;;
17310;SDS011;8773;43.300;0.394;2024-01-11T14:14:56;18.57;;;16.57;;
17310;SDS011;8773;43.300;0.394;2024-01-11T14:17:24;21.27;;;17.07;;
17310;SDS011;8773;43.300;0.394;2024-01-11T14:19:51;18.40;;;15.13;;
17310;SDS011;8773;43.300;0.394;2024-01-11T14:22:20;16.83;;;15.03;;
17310;SDS011;8773;43.300;0.394;2024-01-11T14:24:49;15.73;;;14.00;;
17310;SDS011;8773;43.300;0.394;2024-01-11T14:27:16;16.50;;;14.90;;
17310;SDS011;8773;43.300;0.394;2024-01-11T14:29:44;18.50;;;14.63;;
17310;SDS011;8773;43.300;0.394;2024-01-11T14:32:11;16.83;;;15.03;;
17310;SDS011;8773;43.300;0.394;2024-01-11T14:34:51;19.60;;;16.47;;
17310;SDS011;8773;43.300;0.394;2024-01-11T14:37:19;17.93;;;16.07;;
17310;SDS011;8773;43.300;0.394;2024-01-11T14:39:47;18.73;;;16.73;;
17310;SDS011;8773;43.300;0.394;2024-01-11T14:42:14;18.93;;;15.80;;
17310;SDS011;8773;43.300;0.394;2024-01-11T14:44:41;18.47;;;16.33;;
17310;SDS011;8773;43.300;0.394;2024-01-11T14:47:09;19.50;;;16.73;;